Pilar Observatorio, Argentina

12:12 PM ART on September 03, 2015 (GMT -0300)
Ferreyra | | Change Station
CLOSE
Current Station
Personal Weather Station
Location: Cordoba, CORDOBA
Elevation: 1335 ft
Nearby Weather Stations

Elev 1335 ft 31.45 °S, 64.12 °W | Updated 2 minutes ago

Scattered Clouds
Scattered Clouds
56.0 °F
Feels Like 56.0 °F
N
3.0
Wind Variable Wind from SSE
Gusts 3.0 mph

Today
High -- | Low -- °F
--% Chance of Precip.
Yesterday
High -- | Low -- °F
Precip. -- in
7:29 AM 7:00 PM
Waning Gibbous, 69% visible
Pressure 30.33 in
Visibility 5.0 miles
Clouds Mostly Cloudy 2000 ft
Scattered Clouds 10000 ft
Dew Point 43 °F
Humidity 61%
Rainfall 0.00 in
Snow Depth Not available.
UV 6 out of 12
Pollen Not available.
Air Quality Not available.
Flu Activity Not available.
METAR SACO 031500Z 14004KT 8000 BKN020 SCT100 12/06 Q1027
Pressure 30.33 in
Visibility 5.0 miles
Clouds Mostly Cloudy 2000 ft
Scattered Clouds 10000 ft
Dew Point 43 °F
Humidity 61%
Rainfall 0.00 in
Snow Depth Not available.
UV 6 out of 12
Pollen Not available.
Air Quality Not available.
Flu Activity Not available.
METAR SACO 031500Z 14004KT 8000 BKN020 SCT100 12/06 Q1027

10-Day Weather Forecast

×

Almanac

Astronomy

Sep. 03, 2015 Rise Set
Actual Time
Civil Twilight
Nautical Twilight
Astronomical Twilight
Moon
Length of Visible Light
Length of Day
Tomorrow will be .
, % of the Moon is Illuminated

Today's Extremes

Country Highs Country Lows

Community

WunderPhotos

Upload Photos

1,851,972 photos uploaded!

WunderBlogs® & News

Nearby

Air Quality

  Air Quality AQ Index Pollutant
Not available.

Snow Depth

Station Depth Elevation

Earthquake Activity

City Distance Mag. Time & Date
Minimum magnitude displayed is 2.5.

Coastal Water Temperatures

Place Temperature

Stations

Nearby Weather Stations

Station Location Temp. Windchill Dew Point Humidity Wind Precip. Elev Updated Type